Time;durP1;ratioP1;P1;durP2;ratioP2;P2;SDS_P1;SDS_P2;PMS_P1;PMS_P2;Temp;Humidity;BMP_temperature;BMP_pressure;BME280_temperature;BME280_humidity;BME280_pressure;Samples;Min_cycle;Max_cycle;Signal;HPM_P1;HPM_P2
2022/08/12 00:47:13;;;;;;;2.45;2.15;;;23.80;75.20;;;;;;10463104;28;20319;-68
2022/08/12 00:52:16;;;;;;;2.35;2.05;;;23.70;75.20;;;;;;10463224;28;20032;-65
2022/08/12 00:57:23;;;;;;;2.60;2.08;;;23.70;75.20;;;;;;10462125;28;20028;-65
2022/08/12 01:02:29;;;;;;;5.57;1.80;;;23.70;75.30;;;;;;10463680;28;20021;-69
2022/08/12 01:12:52;;;;;;;2.20;1.83;;;23.60;75.30;;;;;;10467261;28;20031;-67
2022/08/12 01:17:54;;;;;;;3.05;2.00;;;23.60;75.30;;;;;;10470755;28;20116;-66
2022/08/12 01:23:22;;;;;;;2.22;1.80;;;23.60;75.40;;;;;;10472306;28;20033;-68
2022/08/12 01:28:25;;;;;;;3.20;1.98;;;23.50;75.30;;;;;;10471720;28;20044;-68
2022/08/12 01:33:33;;;;;;;2.17;1.95;;;23.50;75.40;;;;;;10471813;28;20021;-68
2022/08/12 01:38:35;;;;;;;1.95;1.77;;;23.50;75.40;;;;;;10467270;28;20032;-68
2022/08/12 01:43:37;;;;;;;2.92;1.85;;;23.40;75.40;;;;;;10469627;28;20043;-68
2022/08/12 01:49:06;;;;;;;2.30;1.98;;;23.40;75.40;;;;;;10466901;28;20033;-67
2022/08/12 01:54:11;;;;;;;1.92;1.80;;;23.30;75.40;;;;;;10469907;28;20025;-67
2022/08/12 01:59:55;;;;;;;1.98;1.65;;;23.30;75.50;;;;;;10470019;28;20508;-66
2022/08/12 02:11:17;;;;;;;3.03;2.00;;;23.30;75.70;;;;;;10468079;28;20032;-68
2022/08/12 02:16:46;;;;;;;2.80;1.77;;;23.20;75.60;;;;;;10456958;28;20048;-65
2022/08/12 02:21:55;;;;;;;3.15;2.13;;;23.20;75.80;;;;;;10465454;28;20112;-69
2022/08/12 02:26:58;;;;;;;2.45;1.85;;;23.10;75.80;;;;;;10467447;28;20059;-68
2022/08/12 02:32:00;;;;;;;2.42;2.00;;;23.10;75.80;;;;;;10469226;28;20170;-67
2022/08/12 02:37:02;;;;;;;2.42;2.05;;;23.10;75.80;;;;;;10470045;28;20056;-68
2022/08/12 02:42:05;;;;;;;4.32;1.63;;;23.10;75.90;;;;;;10465026;28;20037;-69
2022/08/12 02:47:07;;;;;;;2.30;2.00;;;23.00;76.00;;;;;;10466001;28;20048;-68
2022/08/12 02:52:09;;;;;;;2.78;1.80;;;23.00;76.00;;;;;;10465297;28;20473;-68
2022/08/12 02:57:11;;;;;;;3.42;2.10;;;23.00;76.10;;;;;;10465806;28;20151;-69
2022/08/12 03:02:15;;;;;;;3.33;1.77;;;22.90;76.10;;;;;;10465586;28;20033;-68
2022/08/12 03:07:42;;;;;;;2.90;2.13;;;22.90;76.20;;;;;;10466534;28;20044;-65
2022/08/12 03:12:45;;;;;;;2.20;2.00;;;22.90;76.30;;;;;;10469349;28;20021;-69
2022/08/12 03:17:55;;;;;;;2.35;2.00;;;22.80;76.20;;;;;;10460537;28;20119;-68
2022/08/12 03:22:59;;;;;;;2.75;2.22;;;22.80;76.20;;;;;;10465474;28;20472;-68
2022/08/12 03:28:02;;;;;;;2.70;2.00;;;22.80;76.30;;;;;;10465701;28;20331;-64
2022/08/12 03:33:04;;;;;;;2.13;1.92;;;22.80;76.30;;;;;;10457715;28;20018;-68
2022/08/12 03:38:08;;;;;;;2.08;1.88;;;22.70;76.30;;;;;;10465478;28;20029;-66
2022/08/12 04:04:34;;;;;;;4.75;3.17;;;22.60;76.50;;;;;;10460942;28;20331;-62
2022/08/12 04:09:40;;;;;;;3.40;2.20;;;22.50;76.50;;;;;;10460399;28;20119;-68
2022/08/12 04:14:40;;;;;;;2.65;2.08;;;22.50;76.70;;;;;;10463684;28;20036;-63
2022/08/12 04:19:41;;;;;;;3.38;2.08;;;22.50;76.60;;;;;;10467185;28;20024;-68
2022/08/12 04:24:43;;;;;;;4.07;2.20;;;22.50;76.60;;;;;;10464829;28;20076;-69
2022/08/12 04:29:43;;;;;;;3.55;2.30;;;22.40;76.60;;;;;;10460124;28;20025;-65
2022/08/12 04:34:44;;;;;;;3.08;2.05;;;22.40;76.70;;;;;;10463113;28;20045;-67
2022/08/12 04:39:46;;;;;;;2.50;2.00;;;22.40;76.70;;;;;;10413916;28;20316;-67
2022/08/12 04:44:47;;;;;;;2.78;2.30;;;22.40;76.80;;;;;;10373298;28;20231;-70
2022/08/12 04:49:48;;;;;;;2.58;2.33;;;22.30;76.70;;;;;;10383137;28;20330;-70
2022/08/12 04:54:49;;;;;;;2.90;2.03;;;22.30;76.70;;;;;;10378992;28;20080;-66
2022/08/12 04:59:49;;;;;;;2.92;2.22;;;22.30;76.80;;;;;;10375258;28;20041;-65
2022/08/12 05:04:54;;;;;;;3.15;2.45;;;22.20;76.90;;;;;;10374513;28;20056;-68
2022/08/12 05:09:55;;;;;;;2.50;2.10;;;22.20;77.00;;;;;;10378377;28;20828;-67
2022/08/12 05:14:56;;;;;;;3.63;2.40;;;22.20;77.10;;;;;;10377319;28;20150;-64
2022/08/12 05:19:56;;;;;;;4.70;2.42;;;22.20;77.10;;;;;;10378005;28;20032;-64
2022/08/12 05:24:57;;;;;;;2.67;2.20;;;22.20;77.10;;;;;;10383304;28;20805;-64
2022/08/12 05:29:57;;;;;;;3.70;2.58;;;22.20;77.10;;;;;;10382581;28;20139;-64
2022/08/12 05:35:05;;;;;;;5.57;3.67;;;22.10;77.10;;;;;;10375731;28;20117;-74
2022/08/12 05:40:06;;;;;;;5.77;4.03;;;22.10;77.50;;;;;;10381083;28;20374;-70
2022/08/12 05:45:07;;;;;;;6.40;4.30;;;21.70;78.90;;;;;;10376936;28;20051;-74
2022/08/12 05:50:08;;;;;;;7.07;4.32;;;21.40;80.10;;;;;;10383445;28;20032;-71
2022/08/12 05:55:09;;;;;;;7.47;4.47;;;21.10;81.20;;;;;;10393624;28;20641;-73
2022/08/12 06:00:10;;;;;;;9.30;4.40;;;21.00;82.00;;;;;;10392637;28;20052;-71
2022/08/12 06:05:11;;;;;;;7.55;4.15;;;20.80;82.60;;;;;;10395409;28;20053;-73
2022/08/12 06:10:12;;;;;;;5.95;4.30;;;20.60;83.30;;;;;;10388908;28;20352;-72
2022/08/12 06:15:13;;;;;;;5.40;4.20;;;20.70;83.60;;;;;;10383745;28;20120;-64
2022/08/12 06:20:14;;;;;;;8.02;4.60;;;20.60;84.00;;;;;;10384889;28;20596;-64
2022/08/12 06:25:17;;;;;;;6.97;4.60;;;20.70;84.30;;;;;;10381106;28;20576;-67
2022/08/12 06:30:21;;;;;;;7.28;4.50;;;20.60;84.70;;;;;;10387590;28;20025;-65
2022/08/12 06:35:22;;;;;;;13.25;5.55;;;20.70;85.10;;;;;;10389407;28;20035;-64
2022/08/12 06:45:46;;;;;;;7.85;4.40;;;20.60;85.90;;;;;;10382895;28;20040;-64
2022/08/12 06:50:48;;;;;;;7.85;4.07;;;20.60;86.00;;;;;;10386091;28;20550;-65
2022/08/12 06:55:56;;;;;;;6.80;3.85;;;20.80;86.20;;;;;;10387159;28;20487;-64
2022/08/12 07:00:58;;;;;;;4.35;3.30;;;20.80;86.10;;;;;;10383779;28;20060;-64
2022/08/12 07:06:01;;;;;;;5.97;3.75;;;20.90;85.80;;;;;;10384802;28;20570;-65
2022/08/12 07:11:08;;;;;;;5.57;4.18;;;21.00;86.00;;;;;;10382662;28;20435;-64
2022/08/12 07:16:15;;;;;;;5.25;3.90;;;21.00;86.10;;;;;;10380806;28;20027;-71
2022/08/12 07:21:16;;;;;;;7.07;4.03;;;21.10;86.10;;;;;;10375698;28;20083;-65
2022/08/12 07:26:17;;;;;;;5.22;3.25;;;21.20;86.70;;;;;;10377425;28;20044;-65
2022/08/12 07:31:18;;;;;;;5.65;3.75;;;21.20;86.50;;;;;;10377395;28;20051;-65
2022/08/12 07:36:21;;;;;;;6.60;3.53;;;21.30;86.60;;;;;;10370320;28;20385;-65
2022/08/12 07:41:24;;;;;;;5.28;3.30;;;21.40;86.30;;;;;;10386620;28;20033;-72
2022/08/12 07:46:33;;;;;;;6.20;3.88;;;21.50;85.90;;;;;;10384245;28;20045;-65
2022/08/12 07:51:34;;;;;;;6.57;3.65;;;21.60;86.00;;;;;;10385219;28;20892;-69
2022/08/12 07:56:37;;;;;;;6.63;3.08;;;21.80;85.20;;;;;;10386507;28;20040;-75
2022/08/12 08:01:39;;;;;;;4.57;3.30;;;21.90;85.00;;;;;;10406901;28;20182;-78
2022/08/12 08:06:43;;;;;;;5.53;3.20;;;22.00;85.10;;;;;;10410964;22;20585;-70
2022/08/12 08:17:05;;;;;;;4.32;3.08;;;22.30;83.50;;;;;;10346463;28;20037;-72
2022/08/12 08:22:09;;;;;;;3.95;2.85;;;22.50;83.30;;;;;;10344812;28;20238;-78
2022/08/12 08:27:10;;;;;;;5.13;3.50;;;22.60;83.20;;;;;;10337750;28;20041;-73
2022/08/12 08:32:11;;;;;;;7.10;3.25;;;22.70;82.00;;;;;;10322982;28;20025;-66
2022/08/12 08:37:14;;;;;;;8.15;3.45;;;22.90;80.90;;;;;;10338708;28;20041;-75
2022/08/12 08:47:42;;;;;;;6.65;3.45;;;23.30;80.30;;;;;;10330350;28;20041;-69
2022/08/12 08:52:44;;;;;;;6.15;3.38;;;23.40;80.00;;;;;;10340543;28;20089;-69
2022/08/12 08:57:49;;;;;;;6.35;3.33;;;23.50;79.60;;;;;;10345231;28;20037;-72
2022/08/12 09:02:50;;;;;;;4.65;3.05;;;23.70;78.90;;;;;;10341472;28;20370;-73
2022/08/12 09:07:51;;;;;;;4.63;3.33;;;23.90;78.50;;;;;;10324867;28;20398;-72
2022/08/12 09:18:12;;;;;;;3.72;2.97;;;24.30;77.20;;;;;;10347593;28;20046;-67
2022/08/12 09:23:13;;;;;;;6.07;3.17;;;24.40;76.30;;;;;;10342887;28;20056;-66
2022/08/12 09:28:14;;;;;;;5.40;3.40;;;24.50;75.90;;;;;;10397039;22;20598;-66
2022/08/12 09:33:15;;;;;;;4.25;3.70;;;24.80;75.50;;;;;;10389495;28;20865;-71
2022/08/12 09:38:16;;;;;;;5.63;3.30;;;25.20;74.60;;;;;;10397761;28;20567;-71
2022/08/12 09:48:36;;;;;;;7.28;3.65;;;25.20;73.80;;;;;;10389622;28;20040;-70
2022/08/12 09:53:38;;;;;;;7.88;3.72;;;25.30;73.20;;;;;;10395165;28;20139;-69
2022/08/12 09:58:40;;;;;;;4.65;3.40;;;25.60;72.30;;;;;;10388984;28;20028;-69
2022/08/12 10:03:42;;;;;;;5.20;3.08;;;25.80;71.30;;;;;;10391358;28;20037;-69
2022/08/12 10:08:54;;;;;;;5.38;3.33;;;25.90;70.20;;;;;;10392700;28;20072;-69
2022/08/12 10:13:55;;;;;;;4.10;3.30;;;26.20;68.70;;;;;;10388428;28;20071;-71
2022/08/12 10:19:01;;;;;;;4.60;3.50;;;26.40;68.80;;;;;;10391791;28;20024;-70
2022/08/12 10:24:14;;;;;;;6.25;3.55;;;26.40;68.20;;;;;;10390380;28;20370;-68
2022/08/12 10:34:41;;;;;;;4.72;3.30;;;26.70;68.20;;;;;;10388072;28;20453;-71
2022/08/12 10:39:43;;;;;;;6.00;2.70;;;26.90;67.10;;;;;;10383392;28;20025;-70
2022/08/12 10:44:45;;;;;;;3.00;2.55;;;27.00;66.10;;;;;;10393750;28;20048;-68
2022/08/12 10:49:47;;;;;;;6.82;2.95;;;27.00;65.20;;;;;;10382922;28;20526;-68
2022/08/12 10:54:49;;;;;;;5.75;2.70;;;26.90;65.20;;;;;;10386912;28;20032;-68
2022/08/12 10:59:53;;;;;;;3.72;2.70;;;27.10;64.30;;;;;;10395531;28;20917;-69
2022/08/12 11:04:56;;;;;;;4.00;2.50;;;27.10;63.80;;;;;;10389329;28;20475;-69
2022/08/12 11:09:57;;;;;;;5.85;2.38;;;27.20;63.40;;;;;;10391758;28;20032;-70
2022/08/12 11:14:58;;;;;;;5.88;2.95;;;27.30;63.10;;;;;;10387698;28;20048;-68
2022/08/12 11:19:59;;;;;;;5.88;3.00;;;27.40;63.00;;;;;;10386824;28;20029;-67
2022/08/12 11:24:59;;;;;;;4.22;2.65;;;27.40;62.70;;;;;;10394522;28;20040;-69
2022/08/12 11:30:00;;;;;;;5.10;2.60;;;27.50;62.30;;;;;;10386396;28;20115;-69
2022/08/12 11:35:01;;;;;;;3.05;2.53;;;27.70;62.60;;;;;;10380132;28;20051;-69
2022/08/12 11:40:02;;;;;;;2.67;2.35;;;27.90;61.90;;;;;;10385325;28;20124;-69
2022/08/12 11:45:04;;;;;;;2.58;2.33;;;27.90;61.00;;;;;;10380708;28;20126;-68
2022/08/12 11:50:05;;;;;;;4.18;2.42;;;28.00;61.10;;;;;;10382245;28;20471;-70
2022/08/12 11:55:06;;;;;;;7.55;2.30;;;28.10;60.80;;;;;;10387990;28;20116;-67
2022/08/12 12:00:09;;;;;;;2.40;2.05;;;28.30;60.40;;;;;;10382875;28;21075;-68
2022/08/12 12:05:09;;;;;;;4.13;2.00;;;28.40;60.20;;;;;;10378401;28;20143;-69
2022/08/12 12:10:12;;;;;;;3.40;2.25;;;28.60;59.80;;;;;;10384446;28;20025;-69
2022/08/12 12:15:13;;;;;;;2.90;2.60;;;28.60;59.20;;;;;;10383659;28;20069;-69
2022/08/12 12:20:14;;;;;;;8.70;3.17;;;28.80;59.10;;;;;;10389361;28;20033;-69
2022/08/12 12:25:14;;;;;;;9.70;3.45;;;28.80;59.80;;;;;;10378922;28;21768;-64
2022/08/12 12:30:15;;;;;;;9.10;3.35;;;28.70;60.40;;;;;;10379706;28;20594;-65
2022/08/12 12:35:16;;;;;;;5.05;2.78;;;28.50;61.00;;;;;;10380532;28;20668;-64
2022/08/12 12:40:17;;;;;;;2.78;2.55;;;28.20;61.50;;;;;;10382114;28;20031;-66
2022/08/12 12:45:18;;;;;;;4.72;2.80;;;28.00;62.10;;;;;;10378857;28;20080;-65
2022/08/12 12:50:20;;;;;;;6.32;2.47;;;27.80;62.60;;;;;;10382342;28;20532;-65
2022/08/12 12:55:21;;;;;;;3.67;2.60;;;27.70;63.20;;;;;;10379986;28;20437;-67
2022/08/12 13:00:26;;;;;;;2.90;2.47;;;27.60;63.40;;;;;;10388771;28;20021;-68
2022/08/12 13:05:35;;;;;;;5.68;2.85;;;27.50;63.70;;;;;;10383921;28;20037;-67
2022/08/12 13:10:36;;;;;;;3.90;2.75;;;27.50;64.00;;;;;;10388763;28;20396;-66
2022/08/12 13:15:37;;;;;;;4.50;2.78;;;27.50;64.40;;;;;;10391150;28;20029;-68
2022/08/12 13:20:37;;;;;;;2.95;2.65;;;27.40;64.70;;;;;;10391984;28;20040;-68
2022/08/12 13:25:41;;;;;;;3.67;2.65;;;27.40;64.80;;;;;;10394589;28;20376;-65
2022/08/12 13:30:45;;;;;;;7.10;2.83;;;27.40;65.00;;;;;;10397625;28;20058;-68
2022/08/12 13:35:49;;;;;;;3.67;2.53;;;27.50;65.20;;;;;;10387667;28;20544;-69
2022/08/12 13:40:50;;;;;;;3.10;2.80;;;27.50;65.20;;;;;;10399024;28;20627;-70
2022/08/12 13:45:50;;;;;;;3.10;2.80;;;27.50;65.30;;;;;;10396214;28;20044;-64
2022/08/12 13:50:51;;;;;;;4.70;2.80;;;27.60;65.50;;;;;;10401938;28;20055;-67
2022/08/12 13:55:55;;;;;;;2.95;2.60;;;27.70;65.50;;;;;;10407185;28;20399;-66
2022/08/12 14:00:57;;;;;;;2.67;2.47;;;27.80;65.70;;;;;;10401918;28;20418;-68
2022/08/12 14:05:58;;;;;;;3.30;2.50;;;27.80;65.60;;;;;;10399159;28;20476;-66
2022/08/12 14:10:58;;;;;;;4.38;2.55;;;27.90;65.70;;;;;;10397407;28;20106;-68
2022/08/12 14:16:01;;;;;;;2.50;2.30;;;28.00;65.80;;;;;;10404448;28;20051;-65
2022/08/12 14:21:08;;;;;;;3.45;2.47;;;28.10;65.90;;;;;;10396587;28;20038;-65
2022/08/12 14:26:11;;;;;;;2.60;2.40;;;28.20;66.00;;;;;;10397646;28;20040;-65
2022/08/12 14:31:14;;;;;;;3.85;3.08;;;28.30;66.10;;;;;;10386096;28;20530;-65
2022/08/12 14:36:21;;;;;;;4.40;3.45;;;28.70;64.70;;;;;;10391149;28;20103;-67
2022/08/12 14:41:25;;;;;;;;;;;29.30;60.80;;;;;;10387129;28;20384;-64
2022/08/12 14:46:26;;;;;;;3.20;2.85;;;29.80;60.40;;;;;;10388492;28;20220;-66
2022/08/12 14:51:27;;;;;;;6.95;3.15;;;30.20;59.30;;;;;;10386927;28;20031;-66
2022/08/12 14:56:28;;;;;;;4.88;3.15;;;30.40;58.60;;;;;;10390632;28;20047;-74
2022/08/12 15:01:38;;;;;;;3.17;2.80;;;30.60;57.30;;;;;;10387303;28;20488;-70
2022/08/12 15:06:40;;;;;;;5.95;3.10;;;30.70;56.00;;;;;;10387130;28;20040;-66
2022/08/12 15:11:46;;;;;;;7.60;4.03;;;30.70;56.40;;;;;;10387525;28;20472;-66
2022/08/12 15:16:47;;;;;;;5.43;3.50;;;30.70;59.20;;;;;;10385584;28;20037;-69
2022/08/12 15:21:48;;;;;;;5.13;3.70;;;30.60;61.10;;;;;;10391042;28;20043;-70
2022/08/12 15:26:48;;;;;;;6.15;3.25;;;30.50;61.90;;;;;;10390126;28;20597;-65
2022/08/12 15:31:51;;;;;;;3.50;3.20;;;30.50;62.20;;;;;;10385188;28;20667;-68
2022/08/12 15:36:52;;;;;;;5.22;4.10;;;30.40;61.90;;;;;;10388605;28;20466;-69
2022/08/12 15:41:53;;;;;;;4.72;3.50;;;30.40;61.60;;;;;;10380568;28;20021;-70
2022/08/12 15:46:54;;;;;;;4.68;3.67;;;30.30;60.90;;;;;;10388437;28;20222;-68
2022/08/12 15:51:54;;;;;;;3.92;3.22;;;30.20;60.90;;;;;;10382216;28;20424;-68
2022/08/12 15:56:55;;;;;;;3.78;3.10;;;30.20;60.60;;;;;;10389829;28;20055;-69
2022/08/12 16:01:57;;;;;;;5.57;3.38;;;30.10;59.90;;;;;;10386086;28;20280;-66
2022/08/12 16:06:57;;;;;;;3.95;3.20;;;30.00;59.80;;;;;;10385181;28;20257;-69
2022/08/12 16:12:02;;;;;;;4.20;3.30;;;29.80;59.40;;;;;;10382723;28;20058;-65
2022/08/12 16:17:03;;;;;;;3.78;3.33;;;29.70;59.20;;;;;;10382928;28;20161;-65
2022/08/12 16:22:06;;;;;;;6.07;2.90;;;29.40;60.50;;;;;;10391628;28;20095;-67
2022/08/12 16:27:06;;;;;;;3.53;3.22;;;29.30;59.70;;;;;;10384548;28;20934;-66
2022/08/12 16:32:08;;;;;;;5.45;2.90;;;29.10;59.70;;;;;;10379957;28;20078;-67
2022/08/12 16:37:33;;;;;;;3.70;3.03;;;29.00;59.80;;;;;;10385705;28;20266;-66
2022/08/12 16:42:38;;;;;;;4.63;3.25;;;28.90;58.40;;;;;;10933527;22;20527;-66
2022/08/12 16:47:44;;;;;;;3.03;2.60;;;28.80;59.80;;;;;;10385445;28;20223;-66
2022/08/12 16:52:47;;;;;;;4.57;2.90;;;28.70;59.20;;;;;;10376026;28;20368;-66
2022/08/12 16:57:48;;;;;;;3.35;2.92;;;28.60;59.70;;;;;;10381411;28;20210;-66
2022/08/12 17:02:49;;;;;;;3.65;2.63;;;28.50;59.60;;;;;;10385187;28;20359;-66
2022/08/12 17:07:50;;;;;;;3.50;2.83;;;28.50;59.70;;;;;;10379432;28;20035;-66
2022/08/12 17:12:51;;;;;;;4.00;2.80;;;28.50;59.20;;;;;;10382237;28;20414;-65
2022/08/12 17:17:51;;;;;;;4.45;3.25;;;28.40;59.00;;;;;;10384330;28;20047;-65
2022/08/12 17:22:55;;;;;;;2.95;2.58;;;28.30;58.30;;;;;;10385530;28;20033;-66
2022/08/12 17:27:56;;;;;;;3.92;2.88;;;28.30;59.70;;;;;;10386739;28;20199;-65
2022/08/12 17:33:01;;;;;;;4.03;2.63;;;28.30;59.10;;;;;;10381276;28;20139;-65
2022/08/12 17:38:05;;;;;;;2.88;2.50;;;28.20;58.90;;;;;;10375430;28;20044;-65
2022/08/12 17:43:09;;;;;;;3.78;2.67;;;28.00;59.30;;;;;;10378011;28;20047;-66
2022/08/12 17:48:10;;;;;;;2.70;2.50;;;28.00;59.70;;;;;;10376053;28;20028;-66
2022/08/12 17:53:15;;;;;;;2.45;2.22;;;27.90;59.80;;;;;;10377310;28;20036;-65
2022/08/12 17:58:28;;;;;;;2.75;2.50;;;27.90;60.10;;;;;;10386213;28;20471;-66
2022/08/12 18:03:30;;;;;;;5.30;4.05;;;27.80;60.30;;;;;;10383504;28;20350;-65
2022/08/12 18:08:32;;;;;;;4.50;4.00;;;27.70;60.60;;;;;;10387297;28;20032;-62
2022/08/12 18:13:33;;;;;;;5.25;4.10;;;27.60;61.00;;;;;;10383061;28;20064;-65
2022/08/12 18:18:34;;;;;;;7.38;3.97;;;27.40;61.40;;;;;;10389765;28;20114;-66
2022/08/12 18:23:35;;;;;;;4.53;3.65;;;27.30;61.90;;;;;;10384487;28;20144;-68
2022/08/12 18:28:41;;;;;;;4.63;3.42;;;27.20;62.80;;;;;;10390933;28;20416;-69
2022/08/12 18:33:44;;;;;;;3.67;3.38;;;27.10;62.70;;;;;;10387899;28;20328;-68
2022/08/12 18:38:45;;;;;;;5.20;2.90;;;27.00;63.30;;;;;;10393616;28;20403;-68
2022/08/12 18:43:45;;;;;;;3.78;2.60;;;26.90;63.70;;;;;;10389115;28;20476;-68
2022/08/12 18:48:46;;;;;;;6.68;2.78;;;26.80;64.00;;;;;;10389301;28;20025;-68
2022/08/12 18:53:50;;;;;;;4.05;2.67;;;26.70;64.50;;;;;;10391963;28;20047;-67
2022/08/12 18:58:51;;;;;;;5.03;2.60;;;26.60;65.20;;;;;;10393998;28;21193;-68
2022/08/12 19:04:00;;;;;;;4.35;2.90;;;26.50;65.80;;;;;;10392712;28;20429;-68
2022/08/12 19:09:05;;;;;;;3.95;2.55;;;26.30;66.30;;;;;;10393069;28;20503;-68
2022/08/12 19:14:24;;;;;;;3.83;2.70;;;26.20;66.90;;;;;;10389016;28;20041;-68
2022/08/12 19:19:25;;;;;;;3.20;2.58;;;26.10;66.90;;;;;;10393823;28;20037;-68
2022/08/12 19:29:46;;;;;;;4.13;2.95;;;25.90;67.20;;;;;;10395520;28;20094;-68
2022/08/12 19:34:53;;;;;;;5.70;2.90;;;25.80;67.50;;;;;;10388783;28;20110;-68
2022/08/12 19:39:57;;;;;;;4.28;3.40;;;25.70;68.00;;;;;;10407838;28;20036;-66
2022/08/12 19:45:01;;;;;;;5.45;3.25;;;25.50;68.10;;;;;;10469660;28;20051;-67
2022/08/12 19:50:02;;;;;;;6.00;2.90;;;25.40;67.90;;;;;;10469389;28;20111;-67
2022/08/12 19:55:05;;;;;;;4.32;2.90;;;25.30;68.00;;;;;;10471213;28;20216;-68
2022/08/12 20:00:09;;;;;;;3.67;2.60;;;25.20;68.10;;;;;;10468393;28;20060;-66
2022/08/12 20:05:10;;;;;;;8.27;2.95;;;25.10;68.30;;;;;;10464365;22;21064;-67
2022/08/12 20:11:02;;;;;;;4.88;3.58;;;25.00;68.70;;;;;;10431696;28;20033;-67
2022/08/12 20:16:09;;;;;;;4.47;3.28;;;24.90;70.10;;;;;;10409004;28;20037;-67
2022/08/12 20:21:09;;;;;;;4.55;3.05;;;24.80;69.60;;;;;;10429467;28;20037;-66
2022/08/12 20:26:12;;;;;;;5.93;3.70;;;24.80;69.60;;;;;;10428686;28;20044;-67
2022/08/12 20:31:13;;;;;;;8.20;3.55;;;24.70;70.00;;;;;;10427041;28;20052;-67
2022/08/12 20:36:16;;;;;;;5.07;3.38;;;24.50;70.10;;;;;;10427948;28;20036;-68
2022/08/12 20:41:50;;;;;;;5.80;4.60;;;24.50;70.20;;;;;;10391844;22;20095;-67
2022/08/12 20:46:55;;;;;;;6.50;4.07;;;24.30;70.10;;;;;;10433511;28;20385;-68
2022/08/12 20:51:56;;;;;;;3.97;3.30;;;24.10;70.00;;;;;;10436980;28;20035;-67
2022/08/12 20:56:58;;;;;;;5.13;3.42;;;24.00;69.60;;;;;;10437768;28;20041;-67
2022/08/12 21:01:59;;;;;;;6.97;3.50;;;23.90;69.70;;;;;;10432244;28;20025;-67
2022/08/12 21:07:00;;;;;;;5.60;3.25;;;23.80;69.90;;;;;;10435154;28;20029;-67
2022/08/12 21:12:03;;;;;;;4.13;2.90;;;23.90;69.70;;;;;;10426690;28;20041;-67
2022/08/12 21:17:04;;;;;;;6.60;2.80;;;23.80;69.50;;;;;;10439276;28;20562;-66
2022/08/12 21:22:05;;;;;;;6.35;3.42;;;23.80;69.40;;;;;;10432475;28;20041;-65
2022/08/12 21:27:06;;;;;;;3.30;3.00;;;23.70;69.40;;;;;;10422606;28;20029;-63
2022/08/12 21:32:07;;;;;;;3.65;2.65;;;23.70;69.50;;;;;;10429654;28;20101;-63
2022/08/12 21:37:07;;;;;;;3.53;2.97;;;23.90;69.30;;;;;;10428023;28;20037;-62
2022/08/12 21:42:08;;;;;;;5.28;3.08;;;24.10;68.90;;;;;;10428846;28;20052;-62
2022/08/12 21:47:12;;;;;;;3.65;3.00;;;24.20;68.70;;;;;;10428483;28;20481;-62
2022/08/12 21:52:12;;;;;;;3.25;2.83;;;24.30;68.50;;;;;;10428403;28;20082;-62
2022/08/12 21:57:13;;;;;;;6.03;3.00;;;24.40;68.40;;;;;;10426533;28;20033;-62
2022/08/12 22:07:45;;;;;;;4.15;2.90;;;24.50;68.30;;;;;;10413657;28;20519;-62
2022/08/12 22:12:46;;;;;;;3.03;2.70;;;24.50;68.20;;;;;;10426373;28;20025;-62
2022/08/12 22:17:47;;;;;;;6.95;3.00;;;24.60;68.30;;;;;;10424076;28;20041;-62
2022/08/12 22:22:48;;;;;;;4.10;2.72;;;24.60;68.30;;;;;;10425486;28;20587;-62
2022/08/12 22:33:08;;;;;;;5.82;2.55;;;24.60;68.30;;;;;;10427339;28;20362;-62
2022/08/12 22:38:14;;;;;;;3.88;2.90;;;24.60;68.30;;;;;;10427193;28;20107;-62
2022/08/12 22:48:34;;;;;;;3.70;2.75;;;24.60;68.40;;;;;;10422585;28;20017;-62
2022/08/12 22:53:35;;;;;;;5.47;2.72;;;24.60;68.40;;;;;;10425088;28;20040;-62
2022/08/12 22:58:36;;;;;;;4.13;2.78;;;24.60;68.50;;;;;;10422943;28;20044;-62
2022/08/12 23:03:39;;;;;;;3.85;2.50;;;24.50;68.50;;;;;;10422547;28;20433;-62
2022/08/12 23:08:42;;;;;;;4.70;2.80;;;24.50;68.60;;;;;;10429761;28;20101;-62
2022/08/12 23:13:51;;;;;;;4.95;2.85;;;24.50;68.60;;;;;;10426880;28;20026;-62
2022/08/12 23:18:52;;;;;;;3.70;2.80;;;24.50;68.70;;;;;;10421624;28;20509;-62
2022/08/12 23:23:57;;;;;;;3.40;2.80;;;24.50;68.70;;;;;;10422640;28;20521;-62
2022/08/12 23:29:16;;;;;;;3.40;2.78;;;24.50;68.70;;;;;;10423681;28;20076;-62
2022/08/12 23:34:16;;;;;;;4.00;2.83;;;24.40;68.70;;;;;;10419938;28;20520;-62
2022/08/12 23:39:17;;;;;;;3.28;2.97;;;24.40;68.80;;;;;;10424880;28;20037;-62
2022/08/12 23:44:21;;;;;;;3.05;2.75;;;24.40;68.90;;;;;;10421752;28;20099;-62
2022/08/12 23:49:28;;;;;;;3.17;2.55;;;24.40;68.90;;;;;;10419999;28;20018;-62
2022/08/12 23:54:29;;;;;;;3.90;2.60;;;24.40;69.00;;;;;;10421331;28;20021;-62
2022/08/12 23:59:32;;;;;;;4.32;3.10;;;24.30;69.00;;;;;;10424921;28;20370;-62
